Time;durP1;ratioP1;P1;durP2;ratioP2;P2;SDS_P1;SDS_P2;PMS_P1;PMS_P2;Temp;Humidity;BMP_temperature;BMP_pressure;BME280_temperature;BME280_humidity;BME280_pressure;Samples;Min_cycle;Max_cycle;Signal;HPM_P1;HPM_P2
2022/06/16 00:00:17;;;;;;;;;;;;;;;13.94;80.85;98637.66;4206880;28;19962;-72
2022/06/16 00:02:18;;;;;;;;;;;;;;;13.91;80.63;98634.91;4208208;28;20305;-70
2022/06/16 00:04:18;;;;;;;;;;;;;;;13.90;80.64;98642.44;4209333;28;19958;-71
2022/06/16 00:06:18;;;;;;;;;;;;;;;13.92;80.49;98639.25;4207373;28;19945;-70
2022/06/16 00:08:19;;;;;;;;;;;;;;;13.90;80.70;98642.44;4208309;28;19924;-70
2022/06/16 00:10:19;;;;;;;;;;;;;;;13.88;80.56;98633.69;4207371;28;19947;-70
2022/06/16 00:12:19;;;;;;;;;;;;;;;13.82;80.98;98635.28;4209803;28;20589;-71
2022/06/16 00:14:22;;;;;;;;;;;;;;;13.82;79.34;98626.94;4209042;28;19927;-71
2022/06/16 00:16:22;;;;;;;;;;;;;;;13.86;78.10;98622.16;4208468;28;20083;-70
2022/06/16 00:18:23;;;;;;;;;;;;;;;13.88;78.26;98619.78;4206498;28;20657;-71
2022/06/16 00:20:23;;;;;;;;;;;;;;;13.88;78.51;98613.44;4209338;28;19969;-70
2022/06/16 00:22:24;;;;;;;;;;;;;;;13.91;77.77;98610.66;4205794;28;20045;-72
2022/06/16 00:24:27;;;;;;;;;;;;;;;13.88;77.79;98611.44;4206507;28;20387;-72
2022/06/16 00:26:27;;;;;;;;;;;;;;;13.89;77.50;98615.81;4207227;28;20010;-72
2022/06/16 00:28:28;;;;;;;;;;;;;;;13.85;77.63;98617.81;4204401;28;19974;-71
2022/06/16 00:30:28;;;;;;;;;;;;;;;13.76;78.22;98631.31;4207509;28;20652;-71
2022/06/16 00:32:28;;;;;;;;;;;;;;;13.73;77.93;98621.75;4208068;28;20417;-71
2022/06/16 00:34:29;;;;;;;;;;;;;;;13.64;79.33;98624.13;4207783;28;19973;-71
2022/06/16 00:36:29;;;;;;;;;;;;;;;13.58;79.47;98622.94;4209411;27;19928;-71
2022/06/16 00:38:29;;;;;;;;;;;;;;;13.52;79.67;98620.94;4208681;28;20450;-72
2022/06/16 00:40:29;;;;;;;;;;;;;;;13.50;79.85;98615.78;4206832;28;19961;-71
2022/06/16 00:42:30;;;;;;;;;;;;;;;13.44;81.14;98620.13;4206635;28;19927;-72
2022/06/16 00:44:30;;;;;;;;;;;;;;;13.41;81.22;98624.50;4212276;28;19927;-71
2022/06/16 00:46:30;;;;;;;;;;;;;;;13.44;79.10;98606.22;4206889;28;20042;-71
2022/06/16 00:48:41;;;;;;;;;;;;;;;13.47;79.29;98606.22;4206987;28;19927;-71
2022/06/16 00:50:42;;;;;;;;;;;;;;;13.48;78.94;98604.22;4206955;28;20387;-71
2022/06/16 00:52:42;;;;;;;;;;;;;;;13.42;79.71;98600.28;4206872;28;19970;-70
2022/06/16 00:55:11;;;;;;;;;;;;;;;13.42;80.41;98605.84;4208949;28;19966;-70
2022/06/16 00:57:16;;;;;;;;;;;;;;;13.42;78.90;98592.72;4189494;28;20313;-71
2022/06/16 00:59:16;;;;;;;;;;;;;;;13.44;78.66;98597.88;4207831;28;19920;-71
2022/06/16 01:01:21;;;;;;;;;;;;;;;13.47;77.97;98592.31;4206657;28;20188;-70
2022/06/16 01:05:42;;;;;;;;;;;;;;;13.42;79.62;98597.50;4205404;28;19927;-72
2022/06/16 01:07:44;;;;;;;;;;;;;;;13.37;78.75;98586.75;4207935;28;20107;-72
2022/06/16 01:09:45;;;;;;;;;;;;;;;13.33;79.12;98592.31;4208250;28;20398;-71
2022/06/16 01:14:14;;;;;;;;;;;;;;;13.26;79.86;98602.63;4207059;28;19984;-72
2022/06/16 01:16:19;;;;;;;;;;;;;;;13.34;78.41;98598.66;4207473;28;20389;-72
2022/06/16 01:18:31;;;;;;;;;;;;;;;13.31;80.10;98602.22;4204942;28;19920;-72
2022/06/16 01:20:37;;;;;;;;;;;;;;;13.29;81.05;98610.16;4204816;28;20389;-72
2022/06/16 01:22:40;;;;;;;;;;;;;;;13.27;81.75;98613.34;4208854;28;19923;-72
2022/06/16 01:24:43;;;;;;;;;;;;;;;13.29;81.51;98613.72;4205994;28;19974;-72
2022/06/16 01:26:59;;;;;;;;;;;;;;;13.30;81.78;98600.63;4206740;28;20083;-72
2022/06/16 01:29:00;;;;;;;;;;;;;;;13.31;81.59;98600.22;4205983;28;19924;-72
2022/06/16 01:31:26;;;;;;;;;;;;;;;13.38;80.54;98605.03;4208094;28;20283;-72
2022/06/16 01:33:40;;;;;;;;;;;;;;;13.39;81.81;98601.03;4201291;28;20640;-72
2022/06/16 01:36:03;;;;;;;;;;;;;;;13.38;82.40;98600.25;4205493;28;20130;-72
2022/06/16 01:38:06;;;;;;;;;;;;;;;13.38;82.70;98603.03;4179553;28;20489;-72
2022/06/16 01:40:06;;;;;;;;;;;;;;;13.36;83.32;98607.41;4207890;28;20016;-72
2022/06/16 01:42:31;;;;;;;;;;;;;;;13.40;84.03;98597.06;4207462;28;19955;-72
2022/06/16 01:44:34;;;;;;;;;;;;;;;13.40;83.79;98600.66;4207252;28;19920;-72
2022/06/16 01:46:38;;;;;;;;;;;;;;;13.44;83.84;98597.88;4205901;28;20284;-72
2022/06/16 01:48:41;;;;;;;;;;;;;;;13.49;83.83;98606.66;4204395;28;20326;-72
2022/06/16 01:50:44;;;;;;;;;;;;;;;13.52;83.84;98601.47;4207816;28;19916;-72
2022/06/16 01:53:05;;;;;;;;;;;;;;;13.53;83.51;98600.28;4208799;28;19924;-72
2022/06/16 01:55:10;;;;;;;;;;;;;;;13.59;83.53;98609.84;4205573;28;20429;-72
2022/06/16 01:57:19;;;;;;;;;;;;;;;13.56;84.00;98618.94;4206706;28;20112;-72
2022/06/16 01:59:23;;;;;;;;;;;;;;;13.46;84.22;98617.75;4206946;28;19919;-72
2022/06/16 02:01:27;;;;;;;;;;;;;;;13.41;83.90;98616.16;4205559;28;21191;-72
2022/06/16 02:03:35;;;;;;;;;;;;;;;13.36;84.70;98619.31;4208086;28;19916;-72
2022/06/16 02:06:07;;;;;;;;;;;;;;;13.30;84.48;98614.53;4206779;28;20385;-72
2022/06/16 02:08:17;;;;;;;;;;;;;;;13.17;85.75;98627.97;4172613;28;19928;-72
2022/06/16 02:10:21;;;;;;;;;;;;;;;13.17;85.37;98625.97;4205561;28;19969;-72
2022/06/16 02:14:51;;;;;;;;;;;;;;;13.14;85.60;98618.41;4206872;28;19927;-72
2022/06/16 02:16:52;;;;;;;;;;;;;;;13.14;85.63;98632.31;4207705;28;20321;-72
2022/06/16 02:18:54;;;;;;;;;;;;;;;13.15;85.71;98611.66;4206293;28;20489;-72
2022/06/16 02:21:04;;;;;;;;;;;;;;;13.16;85.68;98615.25;4206553;28;20271;-72
2022/06/16 02:23:04;;;;;;;;;;;;;;;13.21;85.79;98606.56;4204991;28;19924;-72
2022/06/16 02:25:05;;;;;;;;;;;;;;;13.20;86.02;98616.09;4207541;28;20287;-72
2022/06/16 02:27:05;;;;;;;;;;;;;;;13.19;85.98;98614.47;4206084;28;20373;-72
2022/06/16 02:29:18;;;;;;;;;;;;;;;13.21;85.61;98606.56;4207471;28;20012;-72
2022/06/16 02:31:39;;;;;;;;;;;;;;;13.23;85.59;98603.38;4210098;28;19916;-72
2022/06/16 02:33:48;;;;;;;;;;;;;;;13.22;85.23;98599.81;4210464;28;19927;-72
2022/06/16 02:36:09;;;;;;;;;;;;;;;13.22;85.30;98594.25;4208499;27;19916;-72
2022/06/16 02:38:18;;;;;;;;;;;;;;;13.19;85.72;98608.91;4197970;28;20279;-72
2022/06/16 02:40:48;;;;;;;;;;;;;;;13.19;85.57;98608.91;4209874;28;20279;-72
2022/06/16 02:43:07;;;;;;;;;;;;;;;13.18;86.22;98601.78;4191112;28;19924;-72
2022/06/16 02:45:07;;;;;;;;;;;;;;;13.20;84.73;98594.66;4208551;28;20721;-72
2022/06/16 02:47:17;;;;;;;;;;;;;;;13.23;85.61;98604.19;4208797;28;19916;-72
2022/06/16 02:49:38;;;;;;;;;;;;;;;13.28;84.90;98592.69;4209423;28;19935;-72
2022/06/16 02:51:43;;;;;;;;;;;;;;;13.32;84.04;98589.91;4210445;28;20179;-72
2022/06/16 02:56:04;;;;;;;;;;;;;;;13.39;82.95;98601.84;4209795;28;19922;-72
2022/06/16 02:58:06;;;;;;;;;;;;;;;13.44;82.56;98607.03;4208851;28;20003;-72
2022/06/16 03:00:12;;;;;;;;;;;;;;;13.49;84.63;98606.66;4206458;28;19916;-72
2022/06/16 03:02:13;;;;;;;;;;;;;;;13.57;83.94;98606.63;4205592;28;19924;-72
2022/06/16 03:04:15;;;;;;;;;;;;;;;13.62;83.40;98607.03;4207562;28;19977;-72
2022/06/16 03:06:15;;;;;;;;;;;;;;;13.66;83.22;98605.09;4216843;28;19920;-72
2022/06/16 03:08:16;;;;;;;;;;;;;;;13.67;82.75;98600.31;4211786;28;20294;-72
2022/06/16 03:12:35;;;;;;;;;;;;;;;13.70;82.25;98593.94;4207913;28;20010;-71
2022/06/16 03:14:36;;;;;;;;;;;;;;;13.73;81.86;98601.50;4212436;28;19951;-71
2022/06/16 03:16:38;;;;;;;;;;;;;;;13.74;82.09;98603.91;4211455;28;20403;-71
2022/06/16 03:18:38;;;;;;;;;;;;;;;13.75;82.28;98599.13;4207170;28;20238;-72
2022/06/16 03:20:38;;;;;;;;;;;;;;;13.82;81.86;98604.69;4209416;28;19931;-71
2022/06/16 03:22:38;;;;;;;;;;;;;;;13.80;82.34;98600.72;4211190;28;20242;-71
2022/06/16 03:24:39;;;;;;;;;;;;;;;13.82;81.91;98604.69;4209533;28;20314;-71
2022/06/16 03:26:39;;;;;;;;;;;;;;;13.78;82.32;98603.88;4210549;28;19920;-71
2022/06/16 03:28:39;;;;;;;;;;;;;;;13.78;82.09;98589.97;4208470;28;19973;-71
2022/06/16 03:30:40;;;;;;;;;;;;;;;13.81;81.41;98600.31;4211745;28;19949;-71
2022/06/16 03:32:40;;;;;;;;;;;;;;;13.83;81.44;98599.94;4213672;28;19926;-71
2022/06/16 03:34:40;;;;;;;;;;;;;;;13.83;81.21;98595.16;4212232;28;20026;-71
2022/06/16 03:36:41;;;;;;;;;;;;;;;13.83;81.43;98597.16;4210914;27;19927;-72
2022/06/16 03:38:44;;;;;;;;;;;;;;;13.84;81.54;98599.53;4210471;28;19920;-72
2022/06/16 03:40:44;;;;;;;;;;;;;;;13.85;81.10;98609.47;4212763;28;20500;-72
2022/06/16 03:42:45;;;;;;;;;;;;;;;13.90;80.65;98609.06;4218108;28;19919;-72
2022/06/16 03:44:45;;;;;;;;;;;;;;;13.93;80.45;98616.63;4214784;28;20439;-72
2022/06/16 03:46:46;;;;;;;;;;;;;;;13.92;80.93;98611.44;4211098;28;20311;-72
2022/06/16 03:48:46;;;;;;;;;;;;;;;13.92;80.92;98614.22;4211857;28;20746;-72
2022/06/16 03:50:46;;;;;;;;;;;;;;;13.92;80.98;98617.81;4211830;28;20142;-72
2022/06/16 03:52:47;;;;;;;;;;;;;;;13.90;80.95;98619.38;4206575;28;19916;-72
2022/06/16 03:54:47;;;;;;;;;;;;;;;13.88;81.39;98616.22;4207537;28;19917;-72
2022/06/16 03:56:47;;;;;;;;;;;;;;;13.89;81.45;98624.16;4208716;28;19926;-72
2022/06/16 03:58:52;;;;;;;;;;;;;;;13.92;81.09;98622.56;4207289;28;20029;-72
2022/06/16 04:00:53;;;;;;;;;;;;;;;13.93;81.25;98622.19;4211862;28;19963;-72
2022/06/16 04:03:59;;;;;;;;;;;;;;;13.98;81.29;98626.53;4211451;28;20319;-72
2022/06/16 04:05:13;;;;;;;;;;;;;;;14.00;80.53;98630.53;4208210;28;19920;-72
2022/06/16 04:07:13;;;;;;;;;;;;;;;14.03;80.25;98632.50;4211590;28;20248;-72
2022/06/16 04:09:13;;;;;;;;;;;;;;;14.06;80.77;98650.38;4209689;28;19927;-72
2022/06/16 04:11:30;;;;;;;;;;;;;;;14.09;81.06;98657.94;4214929;28;19923;-72
2022/06/16 04:13:30;;;;;;;;;;;;;;;14.12;81.28;98646.00;4208942;28;19926;-72
2022/06/16 04:15:31;;;;;;;;;;;;;;;14.11;81.78;98657.56;4210844;28;19916;-72
2022/06/16 04:17:31;;;;;;;;;;;;;;;14.08;81.69;98653.59;4212021;28;20007;-72
2022/06/16 04:19:31;;;;;;;;;;;;;;;14.05;81.42;98652.38;4209048;28;19924;-72
2022/06/16 04:21:32;;;;;;;;;;;;;;;14.05;81.66;98657.13;4213997;28;19948;-72
2022/06/16 04:23:32;;;;;;;;;;;;;;;14.08;80.84;98653.59;4213260;28;20535;-72
2022/06/16 04:25:33;;;;;;;;;;;;;;;14.10;80.45;98661.53;4207132;28;19971;-72
2022/06/16 04:27:33;;;;;;;;;;;;;;;14.15;81.49;98655.53;4213750;28;19967;-72
2022/06/16 04:29:33;;;;;;;;;;;;;;;14.16;80.96;98657.16;4211356;28;20145;-72
2022/06/16 04:31:34;;;;;;;;;;;;;;;14.17;81.46;98659.53;4214401;28;19920;-72
2022/06/16 04:33:34;;;;;;;;;;;;;;;14.17;81.04;98662.31;4210779;28;19945;-72
2022/06/16 04:35:35;;;;;;;;;;;;;;;14.19;80.74;98659.13;4211516;28;19923;-70
2022/06/16 04:37:35;;;;;;;;;;;;;;;14.22;81.01;98672.25;4210858;28;20602;-71
2022/06/16 04:39:35;;;;;;;;;;;;;;;14.17;80.63;98656.75;4213987;28;19923;-70
2022/06/16 04:41:35;;;;;;;;;;;;;;;14.21;80.70;98665.88;4213097;28;19973;-71
2022/06/16 04:43:36;;;;;;;;;;;;;;;14.20;80.71;98661.50;4215868;28;19916;-71
2022/06/16 04:45:37;;;;;;;;;;;;;;;14.27;80.61;98657.94;4210712;28;20311;-72
2022/06/16 04:47:38;;;;;;;;;;;;;;;14.30;80.95;98657.94;4218774;28;19920;-71
2022/06/16 04:49:38;;;;;;;;;;;;;;;14.38;81.06;98655.16;4210944;28;20675;-72
2022/06/16 04:51:38;;;;;;;;;;;;;;;14.48;80.63;98668.28;4213048;28;19965;-72
2022/06/16 04:53:38;;;;;;;;;;;;;;;14.63;79.60;98678.22;4214150;28;20271;-72
2022/06/16 04:55:39;;;;;;;;;;;;;;;14.80;78.64;98676.59;4208934;28;19920;-72
2022/06/16 04:57:39;;;;;;;;;;;;;;;14.85;78.06;98667.84;4209703;28;19969;-72
2022/06/16 04:59:40;;;;;;;;;;;;;;;14.86;77.88;98677.78;4210334;28;19924;-72
2022/06/16 05:01:41;;;;;;;;;;;;;;;14.88;77.77;98673.38;4211146;28;20434;-72
2022/06/16 05:03:41;;;;;;;;;;;;;;;14.87;76.87;98674.56;4215259;28;20293;-71
2022/06/16 05:05:41;;;;;;;;;;;;;;;14.93;77.27;98682.53;4207205;28;20019;-72
2022/06/16 05:07:41;;;;;;;;;;;;;;;14.96;77.13;98674.16;4210666;28;19922;-72
2022/06/16 05:09:44;;;;;;;;;;;;;;;15.01;77.53;98675.75;4209680;28;20722;-72
2022/06/16 05:11:44;;;;;;;;;;;;;;;15.02;77.57;98668.97;4206889;28;19924;-72
2022/06/16 05:13:44;;;;;;;;;;;;;;;15.08;77.62;98679.31;4210879;28;19920;-72
2022/06/16 05:15:44;;;;;;;;;;;;;;;15.17;77.83;98690.03;4207037;28;19920;-72
2022/06/16 05:17:45;;;;;;;;;;;;;;;15.13;77.18;98684.44;4210811;28;19962;-72
2022/06/16 05:19:45;;;;;;;;;;;;;;;15.18;76.98;98678.47;4206470;28;19920;-72
2022/06/16 05:21:45;;;;;;;;;;;;;;;15.21;76.65;98682.44;4208798;28;19927;-72
2022/06/16 05:23:45;;;;;;;;;;;;;;;15.24;76.97;98681.63;4209201;28;19924;-72
2022/06/16 05:25:46;;;;;;;;;;;;;;;15.28;77.03;98687.19;4209769;28;19916;-72
2022/06/16 05:27:46;;;;;;;;;;;;;;;15.34;77.84;98688.38;4214198;28;19926;-72
2022/06/16 05:29:47;;;;;;;;;;;;;;;15.41;76.59;98693.91;4211670;28;21057;-72
2022/06/16 05:31:47;;;;;;;;;;;;;;;15.40;77.15;98693.13;4205502;28;20669;-72
2022/06/16 05:33:49;;;;;;;;;;;;;;;15.46;76.32;98699.06;4207502;28;19969;-72
2022/06/16 05:35:56;;;;;;;;;;;;;;;15.48;76.37;98698.66;4212812;28;20010;-72
2022/06/16 05:37:56;;;;;;;;;;;;;;;15.49;75.58;98706.63;4211055;28;19961;-72
2022/06/16 05:39:56;;;;;;;;;;;;;;;15.53;75.25;98710.19;4207089;28;19928;-72
2022/06/16 05:41:56;;;;;;;;;;;;;;;15.53;75.34;98704.59;4212983;28;20321;-72
2022/06/16 05:43:57;;;;;;;;;;;;;;;15.61;74.97;98708.19;4212204;28;20318;-72
2022/06/16 05:45:57;;;;;;;;;;;;;;;15.60;75.31;98718.50;4207938;28;20144;-72
2022/06/16 05:47:57;;;;;;;;;;;;;;;15.61;74.87;98716.53;4208152;28;20197;-72
2022/06/16 05:49:58;;;;;;;;;;;;;;;15.61;74.32;98710.97;4212115;28;20034;-72
2022/06/16 05:51:58;;;;;;;;;;;;;;;15.70;74.94;98714.09;4214433;28;19920;-72
2022/06/16 05:53:58;;;;;;;;;;;;;;;15.75;74.91;98719.28;4211648;28;19978;-72
2022/06/16 05:55:58;;;;;;;;;;;;;;;15.82;74.60;98724.81;4212783;28;20424;-72
2022/06/16 05:57:58;;;;;;;;;;;;;;;15.85;74.81;98712.84;4212873;28;19942;-72
2022/06/16 05:59:59;;;;;;;;;;;;;;;15.88;74.52;98722.38;4207347;28;20359;-72
2022/06/16 06:01:59;;;;;;;;;;;;;;;15.90;75.21;98722.78;4214836;28;19912;-72
2022/06/16 06:03:59;;;;;;;;;;;;;;;15.94;74.59;98718.75;4214644;28;19916;-72
2022/06/16 06:05:59;;;;;;;;;;;;;;;15.99;74.15;98709.16;4194934;28;20043;-72
2022/06/16 06:17:18;;;;;;;;;;;;;;;16.74;71.71;98739.34;4207782;28;20007;-72
2022/06/16 06:19:24;;;;;;;;;;;;;;;17.04;70.54;98733.81;4214295;28;19928;-71
2022/06/16 06:23:44;;;;;;;;;;;;;;;17.15;69.15;98749.72;4210606;28;19923;-72
2022/06/16 06:25:44;;;;;;;;;;;;;;;17.12;69.25;98754.91;4218229;28;20230;-72
2022/06/16 06:27:45;;;;;;;;;;;;;;;17.18;68.92;98755.25;4213655;28;19920;-72
2022/06/16 06:29:47;;;;;;;;;;;;;;;17.25;69.32;98757.19;4214657;28;19926;-72
2022/06/16 06:31:47;;;;;;;;;;;;;;;17.32;69.32;98759.91;4217506;28;19972;-72
2022/06/16 06:33:47;;;;;;;;;;;;;;;17.37;68.25;98770.63;4211634;28;19912;-72
2022/06/16 06:35:47;;;;;;;;;;;;;;;17.38;68.21;98775.81;4214775;27;19966;-72
2022/06/16 06:37:49;;;;;;;;;;;;;;;17.44;68.13;98781.72;4211177;27;19974;-72
2022/06/16 06:39:49;;;;;;;;;;;;;;;17.42;68.30;98776.56;4216315;28;19916;-72
2022/06/16 06:41:50;;;;;;;;;;;;;;;17.35;68.76;98773.84;4215791;28;20659;-72
2022/06/16 06:43:50;;;;;;;;;;;;;;;17.45;69.39;98780.50;4208463;28;19966;-72
2022/06/16 06:45:50;;;;;;;;;;;;;;;17.46;69.11;98784.09;4211851;28;19948;-72
2022/06/16 06:47:50;;;;;;;;;;;;;;;17.50;69.54;98782.06;4213642;28;20368;-72
2022/06/16 06:49:51;;;;;;;;;;;;;;;17.51;68.90;98783.66;4213261;28;20344;-72
2022/06/16 06:51:51;;;;;;;;;;;;;;;17.64;68.81;98785.50;4215260;28;20011;-72
2022/06/16 06:53:52;;;;;;;;;;;;;;;17.72;69.57;98783.44;4214696;28;19915;-72
2022/06/16 06:55:52;;;;;;;;;;;;;;;17.76;68.73;98783.38;4214057;28;20014;-71
2022/06/16 06:57:53;;;;;;;;;;;;;;;17.83;69.19;98786.09;4219367;28;19923;-72
2022/06/16 06:59:54;;;;;;;;;;;;;;;17.90;68.11;98788.81;4216202;28;20347;-72
2022/06/16 07:01:54;;;;;;;;;;;;;;;17.85;67.31;98787.25;4209419;28;20011;-72
2022/06/16 07:03:54;;;;;;;;;;;;;;;17.83;67.33;98791.69;4213485;28;20237;-72
2022/06/16 07:05:55;;;;;;;;;;;;;;;17.86;66.79;98780.44;4218488;28;20370;-72
2022/06/16 07:07:58;;;;;;;;;;;;;;;17.97;67.61;98785.94;4213601;28;20373;-72
2022/06/16 07:09:58;;;;;;;;;;;;;;;18.07;68.82;98787.00;4213564;28;19916;-72
2022/06/16 07:11:58;;;;;;;;;;;;;;;18.19;67.06;98780.81;4209527;28;20337;-72
2022/06/16 07:13:59;;;;;;;;;;;;;;;18.37;66.66;98775.75;4211916;28;19961;-72
2022/06/16 07:15:59;;;;;;;;;;;;;;;18.68;66.12;98784.09;4212941;28;20625;-72
2022/06/16 07:17:59;;;;;;;;;;;;;;;18.89;63.28;98780.94;4213302;28;19916;-72
2022/06/16 07:19:59;;;;;;;;;;;;;;;18.95;63.61;98784.84;4216401;28;20755;-71
2022/06/16 07:22:00;;;;;;;;;;;;;;;19.06;64.06;98779.84;4212796;28;19920;-72
2022/06/16 07:24:00;;;;;;;;;;;;;;;18.96;64.05;98778.03;4206256;28;20162;-72
2022/06/16 07:26:00;;;;;;;;;;;;;;;18.87;62.47;98783.41;4218862;28;19916;-72
2022/06/16 07:28:01;;;;;;;;;;;;;;;18.86;63.20;98784.59;4214528;28;20419;-72
2022/06/16 07:30:01;;;;;;;;;;;;;;;18.92;62.70;98785.69;4218519;28;20253;-71
2022/06/16 07:32:02;;;;;;;;;;;;;;;18.91;63.51;98775.69;4209571;28;19942;-72
2022/06/16 07:34:02;;;;;;;;;;;;;;;18.90;62.75;98778.94;4214613;28;19965;-72
2022/06/16 07:36:02;;;;;;;;;;;;;;;18.98;62.72;98778.38;4212938;27;20271;-72
2022/06/16 07:38:03;;;;;;;;;;;;;;;18.96;62.75;98775.22;4210647;28;19924;-72
2022/06/16 07:40:03;;;;;;;;;;;;;;;19.01;62.94;98768.31;4208687;28;20352;-72
2022/06/16 07:42:04;;;;;;;;;;;;;;;18.99;61.60;98781.97;4212924;28;19916;-72
2022/06/16 07:44:05;;;;;;;;;;;;;;;19.10;61.46;98779.75;4212267;28;19954;-72
2022/06/16 07:46:05;;;;;;;;;;;;;;;19.14;61.70;98776.91;4214782;28;19919;-72
2022/06/16 07:48:06;;;;;;;;;;;;;;;19.07;62.36;98786.25;4215510;28;20218;-72
2022/06/16 07:50:08;;;;;;;;;;;;;;;19.28;61.72;98785.06;4211293;28;19927;-72
2022/06/16 07:52:08;;;;;;;;;;;;;;;19.28;61.28;98790.66;4209741;28;20174;-72
2022/06/16 07:54:10;;;;;;;;;;;;;;;19.26;62.51;98781.88;4213626;28;20038;-72
2022/06/16 07:56:10;;;;;;;;;;;;;;;19.50;62.83;98789.03;4210936;28;19926;-72
2022/06/16 07:58:11;;;;;;;;;;;;;;;19.62;60.71;98805.28;4214790;28;20303;-72
2022/06/16 08:00:12;;;;;;;;;;;;;;;19.66;59.69;98796.78;4214614;28;20449;-72
2022/06/16 08:02:13;;;;;;;;;;;;;;;19.85;59.22;98800.81;4214045;28;19916;-72
2022/06/16 08:04:13;;;;;;;;;;;;;;;19.89;59.37;98798.72;4219806;28;19982;-72
2022/06/16 08:06:15;;;;;;;;;;;;;;;19.85;58.20;98801.59;4210274;28;20286;-72
2022/06/16 08:08:15;;;;;;;;;;;;;;;19.70;58.28;98808.75;4214065;28;19984;-72
2022/06/16 08:10:20;;;;;;;;;;;;;;;19.69;59.10;98814.75;4214116;28;19965;-72
2022/06/16 08:12:20;;;;;;;;;;;;;;;19.63;55.49;98804.06;4213058;28;20400;-72
2022/06/16 08:14:21;;;;;;;;;;;;;;;19.48;56.41;98808.31;4215104;28;19915;-72
2022/06/16 08:16:21;;;;;;;;;;;;;;;19.59;56.43;98813.75;4214751;28;19923;-72
2022/06/16 08:18:23;;;;;;;;;;;;;;;19.78;56.55;98809.41;4209450;28;19924;-72
2022/06/16 08:20:24;;;;;;;;;;;;;;;19.90;56.64;98817.94;4210285;28;19920;-72
2022/06/16 08:22:25;;;;;;;;;;;;;;;19.99;54.23;98813.75;4213364;28;20272;-72
2022/06/16 08:24:25;;;;;;;;;;;;;;;20.08;55.85;98809.13;4208680;28;19930;-72
2022/06/16 08:26:25;;;;;;;;;;;;;;;20.20;55.55;98813.31;4217157;28;19919;-72
2022/06/16 08:28:26;;;;;;;;;;;;;;;20.34;54.80;98817.81;4212172;28;20205;-72
2022/06/16 08:30:26;;;;;;;;;;;;;;;20.23;55.00;98806.03;4213854;28;20153;-72
2022/06/16 08:32:26;;;;;;;;;;;;;;;20.20;55.50;98816.91;4214339;28;19928;-72
2022/06/16 08:34:26;;;;;;;;;;;;;;;20.33;55.96;98810.59;4210653;28;19923;-72
2022/06/16 08:36:27;;;;;;;;;;;;;;;20.51;56.41;98815.84;4213346;27;19927;-72
2022/06/16 08:38:27;;;;;;;;;;;;;;;20.70;55.15;98812.19;4217110;28;19927;-72
2022/06/16 08:40:28;;;;;;;;;;;;;;;20.74;54.41;98821.31;4216593;28;19916;-72
2022/06/16 08:42:35;;;;;;;;;;;;;;;20.77;54.31;98812.03;4212129;28;20096;-72
2022/06/16 08:45:05;;;;;;;;;;;;;;;20.96;51.43;98819.56;4213717;28;19915;-72
2022/06/16 08:47:22;;;;;;;;;;;;;;;21.10;51.41;98818.44;4200588;28;20144;-72
2022/06/16 08:49:29;;;;;;;;;;;;;;;21.18;49.91;98819.81;4213605;28;20363;-72
2022/06/16 08:51:48;;;;;;;;;;;;;;;21.04;50.76;98828.63;4209407;28;19912;-72
2022/06/16 08:53:51;;;;;;;;;;;;;;;21.12;50.95;98837.69;4216903;28;20558;-72
2022/06/16 08:55:57;;;;;;;;;;;;;;;21.22;50.26;98836.63;4211591;28;20381;-72
2022/06/16 08:58:13;;;;;;;;;;;;;;;21.28;49.92;98832.88;4187622;28;19928;-72
2022/06/16 09:00:16;;;;;;;;;;;;;;;21.17;50.98;98832.31;4213286;28;20307;-72
2022/06/16 09:02:25;;;;;;;;;;;;;;;21.17;51.20;98835.13;4212689;28;20521;-72
2022/06/16 09:04:51;;;;;;;;;;;;;;;21.29;49.78;98839.28;4209825;28;20154;-72
2022/06/16 09:07:01;;;;;;;;;;;;;;;21.22;50.62;98843.03;4207393;28;19926;-72
2022/06/16 09:10:14;;;;;;;;;;;;;;;21.32;50.65;98852.47;4212568;28;19916;-72
2022/06/16 09:11:40;;;;;;;;;;;;;;;21.27;50.74;98855.81;4196710;28;20328;-72
2022/06/16 09:13:54;;;;;;;;;;;;;;;21.27;50.73;98856.59;4207738;28;20239;-72
2022/06/16 09:16:06;;;;;;;;;;;;;;;21.36;51.21;98858.00;4215769;28;19916;-72
2022/06/16 09:18:25;;;;;;;;;;;;;;;21.41;51.75;98861.06;4215863;28;20371;-70
2022/06/16 09:20:32;;;;;;;;;;;;;;;21.55;50.42;98854.28;4213209;28;19917;-70
2022/06/16 09:22:42;;;;;;;;;;;;;;;21.79;50.72;98860.47;4214083;28;19962;-70
2022/06/16 09:24:43;;;;;;;;;;;;;;;21.93;49.72;98856.44;4212395;28;19977;-71
2022/06/16 09:26:59;;;;;;;;;;;;;;;22.00;49.19;98856.25;4214027;28;19924;-71
2022/06/16 09:29:04;;;;;;;;;;;;;;;21.96;48.77;98867.63;4212529;28;19919;-71
2022/06/16 09:31:13;;;;;;;;;;;;;;;21.99;48.95;98861.09;4213620;28;19916;-71
2022/06/16 09:33:16;;;;;;;;;;;;;;;22.07;49.12;98856.03;4210998;28;20579;-71
2022/06/16 09:35:21;;;;;;;;;;;;;;;22.06;46.90;98874.19;4216512;28;19922;-71
2022/06/16 09:37:23;;;;;;;;;;;;;;;22.02;48.12;98865.06;4216300;27;20309;-71
2022/06/16 09:39:29;;;;;;;;;;;;;;;22.15;48.88;98866.69;4214030;28;20034;-71
2022/06/16 09:43:57;;;;;;;;;;;;;;;22.25;48.61;98870.41;4211249;28;19973;-71
2022/06/16 09:46:21;;;;;;;;;;;;;;;22.42;48.05;98868.31;4216469;28;19920;-71
2022/06/16 09:48:24;;;;;;;;;;;;;;;22.64;47.58;98868.47;4207415;28;20335;-71
2022/06/16 09:50:27;;;;;;;;;;;;;;;22.58;47.28;98865.41;4220656;28;19916;-71
2022/06/16 09:52:36;;;;;;;;;;;;;;;22.59;47.27;98860.53;4217113;28;20332;-71
2022/06/16 09:54:42;;;;;;;;;;;;;;;22.54;46.91;98859.09;4214639;28;19927;-71
2022/06/16 09:56:48;;;;;;;;;;;;;;;22.63;48.40;98864.84;4214037;28;19923;-71
2022/06/16 09:58:57;;;;;;;;;;;;;;;22.77;47.95;98863.63;4213510;28;19916;-71
2022/06/16 10:01:05;;;;;;;;;;;;;;;22.70;47.71;98866.66;4217402;28;19919;-71
2022/06/16 10:03:12;;;;;;;;;;;;;;;22.73;48.24;98870.59;4214110;28;19959;-71
2022/06/16 10:05:14;;;;;;;;;;;;;;;22.36;47.97;98862.47;4213438;28;19912;-71
2022/06/16 10:07:23;;;;;;;;;;;;;;;22.46;48.29;98852.09;4219968;28;19930;-71
2022/06/16 10:09:27;;;;;;;;;;;;;;;22.62;48.50;98863.28;4213805;28;19916;-71
2022/06/16 10:11:30;;;;;;;;;;;;;;;22.68;50.90;98863.50;4216008;28;20558;-71
2022/06/16 10:13:43;;;;;;;;;;;;;;;22.74;49.31;98863.72;4216340;28;19916;-71
2022/06/16 10:15:47;;;;;;;;;;;;;;;22.88;50.05;98874.59;4217062;28;19916;-71
2022/06/16 10:17:48;;;;;;;;;;;;;;;23.04;50.09;98866.00;4215481;28;19920;-71
2022/06/16 10:19:49;;;;;;;;;;;;;;;23.14;48.88;98870.50;4212747;28;20328;-71
2022/06/16 10:21:49;;;;;;;;;;;;;;;22.91;48.68;98873.66;4208428;28;19935;-71
2022/06/16 10:23:58;;;;;;;;;;;;;;;22.71;49.25;98871.06;4213965;28;20289;-71
2022/06/16 10:26:01;;;;;;;;;;;;;;;22.63;49.65;98870.50;4213949;28;19922;-71
2022/06/16 10:28:18;;;;;;;;;;;;;;;22.38;49.51;98871.25;4207037;28;19920;-71
2022/06/16 10:30:21;;;;;;;;;;;;;;;22.46;49.82;98871.03;4219429;28;19919;-71
2022/06/16 10:32:32;;;;;;;;;;;;;;;22.09;50.01;98873.31;4216410;28;19916;-71
2022/06/16 10:34:35;;;;;;;;;;;;;;;22.00;50.60;98873.13;4212670;28;20079;-71
2022/06/16 10:36:37;;;;;;;;;;;;;;;22.12;50.39;98878.06;4216529;27;19916;-71
2022/06/16 10:38:39;;;;;;;;;;;;;;;22.23;49.39;98884.19;4210243;28;19920;-71
2022/06/16 10:40:41;;;;;;;;;;;;;;;22.41;48.50;98886.47;4215850;28;19916;-71
2022/06/16 10:42:43;;;;;;;;;;;;;;;22.42;47.25;98883.22;4215031;28;19987;-71
2022/06/16 10:44:52;;;;;;;;;;;;;;;22.47;46.67;98890.31;4218442;28;19931;-71
2022/06/16 10:47:04;;;;;;;;;;;;;;;22.66;47.86;98891.34;4219929;28;20315;-71
2022/06/16 10:49:06;;;;;;;;;;;;;;;22.75;46.50;98893.50;4208513;28;20375;-71
2022/06/16 10:51:12;;;;;;;;;;;;;;;22.84;46.04;98897.25;4213215;28;20344;-71
2022/06/16 10:53:30;;;;;;;;;;;;;;;22.77;45.73;98897.47;4217996;28;20164;-71
2022/06/16 10:55:44;;;;;;;;;;;;;;;23.07;47.22;98903.81;4216536;28;19919;-71
2022/06/16 10:57:55;;;;;;;;;;;;;;;23.05;45.83;98909.91;4214426;28;19922;-71
2022/06/16 11:00:14;;;;;;;;;;;;;;;23.21;46.29;98906.97;4214024;28;19923;-71
2022/06/16 11:02:17;;;;;;;;;;;;;;;23.36;46.10;98903.66;4208649;28;19955;-71
2022/06/16 11:04:18;;;;;;;;;;;;;;;23.24;44.85;98908.88;4208263;28;20003;-71
2022/06/16 11:06:21;;;;;;;;;;;;;;;23.16;45.84;98903.91;4215252;28;19970;-71
2022/06/16 11:08:23;;;;;;;;;;;;;;;23.20;44.95;98905.38;4214742;28;20363;-71
2022/06/16 11:10:31;;;;;;;;;;;;;;;23.05;45.25;98909.91;4217271;28;20113;-71